createdAt,value
2019-05-03T00:01:39.109Z,13.50
2019-05-03T00:04:05.808Z,13.40
2019-05-03T00:06:32.260Z,13.30
2019-05-03T00:08:58.742Z,13.40
2019-05-03T00:11:25.345Z,13.30
2019-05-03T00:13:52.541Z,13.00
2019-05-03T00:16:23.713Z,13.00
2019-05-03T00:18:50.443Z,13.10
2019-05-03T00:21:16.894Z,13.00
2019-05-03T00:23:43.356Z,13.00
2019-05-03T00:26:11.854Z,13.10
2019-05-03T00:28:38.498Z,13.00
2019-05-03T00:31:05.053Z,13.00
2019-05-03T00:33:31.756Z,13.00
2019-05-03T00:36:09.327Z,12.90
2019-05-03T00:38:36.180Z,12.70
2019-05-03T00:41:03.354Z,12.70
2019-05-03T00:43:31.653Z,12.70
2019-05-03T00:45:58.630Z,12.70
2019-05-03T00:48:25.274Z,12.80
2019-05-03T00:50:52.057Z,12.90
2019-05-03T00:53:18.917Z,12.90
2019-05-03T00:55:45.780Z,12.90
2019-05-03T00:58:12.437Z,13.00
2019-05-03T01:00:41.765Z,13.00
2019-05-03T01:03:08.663Z,12.90
2019-05-03T01:05:35.455Z,13.00
2019-05-03T01:08:02.117Z,12.90
2019-05-03T01:10:28.972Z,13.00
2019-05-03T01:12:55.869Z,13.10
2019-05-03T01:15:24.686Z,13.20
2019-05-03T01:17:53.654Z,13.10
2019-05-03T01:20:22.445Z,13.00
2019-05-03T01:22:49.233Z,12.80
2019-05-03T01:25:28.803Z,12.80
2019-05-03T01:27:44.627Z,12.80
2019-05-03T01:30:11.963Z,12.60
2019-05-03T01:32:38.753Z,12.80
2019-05-03T01:35:07.338Z,12.80
2019-05-03T01:37:33.900Z,12.70
2019-05-03T01:40:02.347Z,12.70
2019-05-03T01:42:29.746Z,12.60
2019-05-03T01:44:56.265Z,12.60
2019-05-03T01:47:24.745Z,12.40
2019-05-03T01:49:59.215Z,12.40
2019-05-03T01:52:27.562Z,12.60
2019-05-03T01:54:54.032Z,12.60
2019-05-03T01:57:22.062Z,12.70
2019-05-03T01:59:48.613Z,12.70
2019-05-03T02:02:16.965Z,12.70
2019-05-03T02:04:45.329Z,12.70
2019-05-03T02:07:13.864Z,12.70
2019-05-03T02:09:41.687Z,12.70
2019-05-03T02:12:08.236Z,12.70
2019-05-03T02:14:34.662Z,12.70
2019-05-03T02:17:01.833Z,12.60
2019-05-03T02:19:29.585Z,12.50
2019-05-03T02:21:56.035Z,12.50
2019-05-03T02:24:22.481Z,12.50
2019-05-03T02:26:48.955Z,12.40
2019-05-03T02:29:15.380Z,12.50
2019-05-03T02:31:43.637Z,12.40
2019-05-03T02:34:12.340Z,12.30
2019-05-03T02:36:38.424Z,12.20
2019-05-03T02:39:08.203Z,12.10
2019-05-03T02:41:34.778Z,11.90
2019-05-03T02:44:01.292Z,11.70
2019-05-03T02:46:30.842Z,11.70
2019-05-03T02:48:59.185Z,11.70
2019-05-03T02:51:26.224Z,11.80
2019-05-03T02:53:52.817Z,11.70
2019-05-03T02:56:22.469Z,11.60
2019-05-03T02:58:47.797Z,11.70
2019-05-03T03:01:16.245Z,11.60
2019-05-03T03:03:45.470Z,11.60
2019-05-03T03:06:15.746Z,11.50
2019-05-03T03:08:45.340Z,11.60
2019-05-03T03:11:11.111Z,11.60
2019-05-03T03:13:37.809Z,11.50
2019-05-03T03:16:07.355Z,11.70
2019-05-03T03:18:36.740Z,11.90
2019-05-03T03:21:05.948Z,12.10
2019-05-03T03:23:36.432Z,11.90
2019-05-03T03:26:03.082Z,12.00
2019-05-03T03:28:32.338Z,12.00
2019-05-03T03:31:28.500Z,12.10
2019-05-03T03:33:59.298Z,12.00
2019-05-03T03:36:43.596Z,12.20
2019-05-03T03:38:55.409Z,12.30
2019-05-03T03:41:24.979Z,12.20
2019-05-03T03:43:55.804Z,12.30
2019-05-03T03:46:25.054Z,12.40
2019-05-03T03:48:55.914Z,12.40
2019-05-03T03:51:22.927Z,12.50
2019-05-03T03:53:52.039Z,12.60
2019-05-03T03:56:19.994Z,12.40
2019-05-03T03:58:46.655Z,12.40
2019-05-03T04:01:15.649Z,12.30
2019-05-03T04:03:41.589Z,12.20
2019-05-03T04:06:08.119Z,12.40
2019-05-03T04:08:36.029Z,12.40
2019-05-03T04:11:03.180Z,12.40
2019-05-03T04:13:29.720Z,12.40
2019-05-03T04:16:00.936Z,12.40
2019-05-03T04:18:29.275Z,12.40
2019-05-03T04:20:56.232Z,12.30
2019-05-03T04:23:22.901Z,11.90
2019-05-03T04:25:49.362Z,11.90
2019-05-03T04:28:16.392Z,12.10
2019-05-03T04:30:45.740Z,12.30
2019-05-03T04:33:11.496Z,12.30
2019-05-03T04:35:38.033Z,12.40
2019-05-03T04:38:05.531Z,12.40
2019-05-03T04:40:35.617Z,12.40
2019-05-03T04:43:01.571Z,12.40
2019-05-03T04:45:28.147Z,12.60
2019-05-03T04:47:56.269Z,12.60
2019-05-03T04:50:25.251Z,12.60
2019-05-03T04:52:51.240Z,12.70
2019-05-03T04:55:17.690Z,12.60
2019-05-03T04:57:46.754Z,12.50
2019-05-03T05:00:12.623Z,12.40
2019-05-03T05:02:39.172Z,12.30
2019-05-03T05:05:06.654Z,12.20
2019-05-03T05:07:35.056Z,12.20
2019-05-03T05:10:01.903Z,12.10
2019-05-03T05:12:29.462Z,12.20
2019-05-03T05:14:56.677Z,12.20
2019-05-03T05:17:35.482Z,12.20
2019-05-03T05:20:06.299Z,12.30
2019-05-03T05:22:34.966Z,12.20
2019-05-03T05:25:04.476Z,12.20
2019-05-03T05:27:54.628Z,12.40
2019-05-03T05:30:17.842Z,12.30
2019-05-03T05:32:45.400Z,12.30
2019-05-03T05:35:12.005Z,12.50
2019-05-03T05:37:38.435Z,12.70
2019-05-03T05:40:05.494Z,12.90
2019-05-03T05:42:31.937Z,13.30
2019-05-03T05:44:58.503Z,13.70
2019-05-03T05:47:27.853Z,13.80
2019-05-03T05:49:56.201Z,13.90
2019-05-03T05:52:24.407Z,14.10
2019-05-03T05:55:05.458Z,14.30
2019-05-03T05:57:36.952Z,14.50
2019-05-03T06:00:07.313Z,14.50
2019-05-03T06:02:35.890Z,14.40
2019-05-03T06:05:04.854Z,14.50
2019-05-03T06:07:39.048Z,14.60
2019-05-03T06:10:24.868Z,14.60
2019-05-03T06:12:54.534Z,14.70
2019-05-03T06:15:39.512Z,14.70
2019-05-03T06:18:09.220Z,14.80
2019-05-03T06:20:37.591Z,14.90
2019-05-03T06:23:08.811Z,14.90
2019-05-03T06:35:26.133Z,15.00
2019-05-03T06:38:01.815Z,15.00
2019-05-03T06:40:28.696Z,15.10
2019-05-03T06:43:08.001Z,14.80
2019-05-03T06:45:25.084Z,14.80
2019-05-03T06:47:51.964Z,15.10
2019-05-03T06:50:19.570Z,15.20
2019-05-03T06:52:46.832Z,15.40
2019-05-03T06:55:14.506Z,15.40
2019-05-03T06:57:49.506Z,15.40
2019-05-03T07:00:24.639Z,15.40
2019-05-03T07:02:56.318Z,15.40
2019-05-03T07:05:41.112Z,15.30
2019-05-03T07:08:25.696Z,15.40
2019-05-03T07:10:54.959Z,15.50
2019-05-03T07:13:21.498Z,15.60
2019-05-03T07:15:48.851Z,15.80
2019-05-03T07:18:17.461Z,16.00
2019-05-03T07:20:48.527Z,16.20
2019-05-03T07:23:15.568Z,16.20
2019-05-03T07:25:44.770Z,16.40
2019-05-03T07:28:11.702Z,16.60
2019-05-03T07:30:38.217Z,16.80
2019-05-03T07:33:06.667Z,17.00
2019-05-03T07:35:35.233Z,17.10
2019-05-03T07:38:01.400Z,17.10
2019-05-03T07:40:27.834Z,17.00
2019-05-03T07:42:55.480Z,17.10
2019-05-03T07:45:22.329Z,17.20
2019-05-03T07:47:48.943Z,17.50
2019-05-03T07:50:15.518Z,17.90
2019-05-03T07:52:45.018Z,17.90
2019-05-03T07:55:11.539Z,17.80
2019-05-03T07:57:45.816Z,17.90
2019-05-03T08:00:14.952Z,17.70
2019-05-03T08:02:41.605Z,17.50
2019-05-03T08:05:08.358Z,17.30
2019-05-03T08:07:35.616Z,17.10
2019-05-03T08:10:07.038Z,17.20
2019-05-03T08:12:34.874Z,17.00
2019-05-03T08:15:01.578Z,16.90
2019-05-03T08:17:28.033Z,17.00
2019-05-03T08:19:55.160Z,16.80
2019-05-03T08:22:22.241Z,16.80
2019-05-03T08:24:48.706Z,16.60
2019-05-03T08:27:15.175Z,16.30
2019-05-03T08:29:41.813Z,16.00
2019-05-03T08:32:24.451Z,15.90
2019-05-03T08:34:52.607Z,15.60
2019-05-03T08:37:24.482Z,15.40
2019-05-03T08:39:51.220Z,15.30
2019-05-03T08:42:20.802Z,15.40
2019-05-03T08:44:47.250Z,15.30
2019-05-03T08:47:15.366Z,15.30
2019-05-03T08:49:41.969Z,15.20
2019-05-03T08:52:08.619Z,15.30
2019-05-03T08:54:35.168Z,15.40
2019-05-03T08:57:01.813Z,15.40
2019-05-03T08:59:32.337Z,15.50
2019-05-03T09:01:56.634Z,15.50
2019-05-03T09:04:34.206Z,15.60
2019-05-03T09:06:51.907Z,15.60
2019-05-03T09:09:25.417Z,15.50
2019-05-03T09:11:51.528Z,15.20
2019-05-03T09:14:17.985Z,15.20
2019-05-03T09:16:44.832Z,15.30
2019-05-03T09:19:12.245Z,14.70
2019-05-03T09:21:38.910Z,14.80
2019-05-03T09:24:05.446Z,15.00
2019-05-03T09:26:31.921Z,15.20
2019-05-03T09:28:58.576Z,15.20
2019-05-03T09:31:25.048Z,15.10
2019-05-03T09:33:51.750Z,15.00
2019-05-03T09:36:18.213Z,15.00
2019-05-03T09:38:45.778Z,15.20
2019-05-03T09:41:14.827Z,15.30
2019-05-03T09:43:40.949Z,15.00
2019-05-03T09:46:07.374Z,15.00
2019-05-03T09:48:34.734Z,15.20
2019-05-03T09:51:01.281Z,15.30
2019-05-03T09:53:29.624Z,15.30
2019-05-03T09:55:56.055Z,15.30
2019-05-03T09:58:22.516Z,15.30
2019-05-03T10:00:49.867Z,14.80
2019-05-03T10:03:18.075Z,14.80
2019-05-03T10:05:45.834Z,15.10
2019-05-03T10:08:12.723Z,15.00
2019-05-03T10:10:57.852Z,15.10
2019-05-03T10:13:26.973Z,15.00
2019-05-03T10:15:54.812Z,15.10
2019-05-03T10:18:21.869Z,14.90
2019-05-03T10:20:48.415Z,14.60
2019-05-03T10:23:25.647Z,14.50
2019-05-03T10:25:55.119Z,14.20
2019-05-03T10:28:21.475Z,14.20
2019-05-03T10:30:47.940Z,14.30
2019-05-03T10:33:16.960Z,14.60
2019-05-03T10:35:45.100Z,14.40
2019-05-03T10:38:12.002Z,14.50
2019-05-03T10:40:38.599Z,14.30
2019-05-03T10:43:06.119Z,14.00
2019-05-03T10:45:32.680Z,13.70
2019-05-03T10:47:59.273Z,13.90
2019-05-03T10:50:25.912Z,14.10
2019-05-03T10:53:00.025Z,14.00
2019-05-03T10:55:26.326Z,13.90
2019-05-03T10:58:07.040Z,13.90
2019-05-03T11:00:46.356Z,14.10
2019-05-03T11:03:13.130Z,14.10
2019-05-03T11:05:39.573Z,13.90
2019-05-03T11:08:06.018Z,14.00
2019-05-03T11:10:32.675Z,13.90
2019-05-03T11:12:59.213Z,13.70
2019-05-03T11:15:26.010Z,13.80
2019-05-03T11:17:54.578Z,13.70
2019-05-03T11:20:34.870Z,13.70
2019-05-03T11:23:02.948Z,13.70
2019-05-03T11:25:29.542Z,13.80
2019-05-03T11:27:56.827Z,13.70
2019-05-03T11:30:24.669Z,13.60
2019-05-03T11:33:08.180Z,13.50
2019-05-03T11:35:55.185Z,13.20
2019-05-03T11:38:26.259Z,13.20
2019-05-03T11:40:52.942Z,13.30
2019-05-03T11:43:21.301Z,13.20
2019-05-03T11:45:47.778Z,13.00
2019-05-03T11:48:14.808Z,13.00
2019-05-03T11:50:42.323Z,13.10
2019-05-03T11:53:08.808Z,13.20
2019-05-03T11:55:35.478Z,13.10
2019-05-03T11:58:05.655Z,13.20
2019-05-03T12:00:34.373Z,13.40
2019-05-03T12:03:08.556Z,13.20
2019-05-03T12:05:34.940Z,13.20
2019-05-03T12:08:01.490Z,13.20
2019-05-03T12:10:48.570Z,13.20
2019-05-03T12:12:58.255Z,13.40
2019-05-03T12:15:24.936Z,13.50
2019-05-03T12:17:59.003Z,13.40
2019-05-03T12:20:27.631Z,13.50
2019-05-03T12:22:54.153Z,13.60
2019-05-03T12:25:21.299Z,13.70
2019-05-03T12:27:48.478Z,13.90
2019-05-03T12:30:15.456Z,14.00
2019-05-03T12:32:42.268Z,14.10
2019-05-03T12:35:08.796Z,14.00
2019-05-03T12:37:35.497Z,14.00
2019-05-03T12:40:05.541Z,14.10
2019-05-03T12:42:32.293Z,14.30
2019-05-03T12:44:58.771Z,14.40
2019-05-03T12:47:26.559Z,14.30
2019-05-03T12:49:52.989Z,14.60
2019-05-03T12:52:20.049Z,14.60
2019-05-03T12:54:46.868Z,14.60
2019-05-03T12:57:15.383Z,14.30
2019-05-03T12:59:44.933Z,14.20
2019-05-03T13:02:16.510Z,14.20
2019-05-03T13:04:44.748Z,13.90
2019-05-03T13:07:31.416Z,13.90
2019-05-03T13:09:57.971Z,13.70
2019-05-03T13:12:26.322Z,13.70
2019-05-03T13:14:52.816Z,13.50
2019-05-03T13:17:38.368Z,13.70
2019-05-03T13:20:07.784Z,13.60
2019-05-03T13:22:35.025Z,13.50
2019-05-03T13:25:06.373Z,13.60
2019-05-03T13:27:34.812Z,13.60
2019-05-03T13:30:01.391Z,13.80
2019-05-03T13:32:27.984Z,14.00
2019-05-03T13:34:55.286Z,14.10
2019-05-03T13:37:25.262Z,14.00
2019-05-03T13:39:55.338Z,14.00
2019-05-03T13:42:21.509Z,14.10
2019-05-03T13:44:47.971Z,14.10
2019-05-03T13:47:14.991Z,13.40
2019-05-03T13:49:41.589Z,13.40
2019-05-03T13:52:08.025Z,13.70
2019-05-03T13:54:45.143Z,13.70
2019-05-03T13:57:10.790Z,13.70
2019-05-03T13:59:37.343Z,13.80
2019-05-03T14:02:12.569Z,13.50
2019-05-03T14:04:34.522Z,13.70
2019-05-03T14:07:00.457Z,13.50
2019-05-03T14:09:26.903Z,13.60
2019-05-03T14:11:55.192Z,13.50
2019-05-03T14:14:21.756Z,13.40
2019-05-03T14:16:48.299Z,12.90
2019-05-03T14:19:16.779Z,12.90
2019-05-03T14:21:49.192Z,13.10
2019-05-03T14:24:15.840Z,13.30
2019-05-03T14:26:45.371Z,13.20
2019-05-03T14:29:12.012Z,12.90
2019-05-03T14:31:38.527Z,13.10
2019-05-03T14:34:05.965Z,13.30
2019-05-03T14:36:32.569Z,13.40
2019-05-03T14:38:59.245Z,13.60
2019-05-03T14:41:25.819Z,13.60
2019-05-03T14:43:52.304Z,13.70
2019-05-03T14:46:29.242Z,13.70
2019-05-03T14:48:47.273Z,13.60
2019-05-03T14:51:14.734Z,13.40
2019-05-03T14:53:41.577Z,13.50
2019-05-03T14:56:09.917Z,13.40
2019-05-03T14:58:47.507Z,13.50
2019-05-03T15:01:16.104Z,13.40
2019-05-03T15:03:42.646Z,13.20
2019-05-03T15:06:09.231Z,13.10
2019-05-03T15:08:35.808Z,13.40
2019-05-03T15:11:05.308Z,13.40
2019-05-03T15:13:34.875Z,13.30
2019-05-03T15:16:01.442Z,13.20
2019-05-03T15:18:27.982Z,13.20
2019-05-03T15:20:54.971Z,13.30
2019-05-03T15:23:21.853Z,13.40
2019-05-03T15:26:05.070Z,13.40
2019-05-03T15:28:31.413Z,13.20
2019-05-03T15:30:57.964Z,13.30
2019-05-03T15:33:24.489Z,13.10
2019-05-03T15:35:52.822Z,13.00
2019-05-03T15:38:19.391Z,12.90
2019-05-03T15:40:46.416Z,12.90
2019-05-03T15:43:14.968Z,13.00
2019-05-03T15:45:45.098Z,13.00
2019-05-03T15:48:15.193Z,13.10
2019-05-03T15:50:41.714Z,13.20
2019-05-03T15:53:08.178Z,13.20
2019-05-03T15:55:34.640Z,13.20
2019-05-03T15:58:01.209Z,13.30
2019-05-03T16:00:28.939Z,13.30
2019-05-03T16:03:07.497Z,13.10
2019-05-03T16:05:25.620Z,13.10
2019-05-03T16:07:55.164Z,13.20
2019-05-03T16:10:21.652Z,13.20
2019-05-03T16:12:50.249Z,13.30
2019-05-03T16:15:18.859Z,13.30
2019-05-03T16:17:45.610Z,13.30
2019-05-03T16:20:14.338Z,13.10
2019-05-03T16:22:40.738Z,13.30
2019-05-03T16:25:09.034Z,13.40
2019-05-03T16:27:37.389Z,13.50
2019-05-03T16:30:07.878Z,13.40
2019-05-03T16:32:34.672Z,13.50
2019-05-03T16:35:04.836Z,13.30
2019-05-03T16:37:34.423Z,13.30
2019-05-03T16:40:01.938Z,13.40
2019-05-03T16:42:28.541Z,13.40
2019-05-03T16:44:55.054Z,13.40
2019-05-03T16:47:21.520Z,13.40
2019-05-03T16:49:47.999Z,13.40
2019-05-03T16:52:14.738Z,13.40
2019-05-03T16:54:42.806Z,13.30
2019-05-03T16:57:09.348Z,13.20
2019-05-03T16:59:35.739Z,13.30
2019-05-03T17:02:02.407Z,13.30
2019-05-03T17:04:34.519Z,13.40
2019-05-03T17:07:39.169Z,13.40
2019-05-03T17:10:20.724Z,13.40
2019-05-03T17:12:47.264Z,13.50
2019-05-03T17:15:14.478Z,12.90
2019-05-03T17:17:41.223Z,12.70
2019-05-03T17:20:08.667Z,12.90
2019-05-03T17:22:35.508Z,13.00
2019-05-03T17:25:04.345Z,12.60
2019-05-03T17:27:31.907Z,12.80
2019-05-03T17:29:58.382Z,12.80
2019-05-03T17:32:25.040Z,12.40
2019-05-03T17:34:51.654Z,12.30
2019-05-03T17:37:18.139Z,12.50
2019-05-03T17:39:46.521Z,12.60
2019-05-03T17:42:22.141Z,12.40
2019-05-03T17:44:50.752Z,12.40
2019-05-03T17:47:17.304Z,12.60
2019-05-03T17:49:45.174Z,12.70
2019-05-03T17:52:14.244Z,12.70
2019-05-03T17:54:45.686Z,12.60
2019-05-03T17:57:26.189Z,12.50
2019-05-03T18:00:11.060Z,12.50
2019-05-03T18:02:41.304Z,12.40
2019-05-03T18:05:19.459Z,12.20
2019-05-03T18:08:06.010Z,12.00
2019-05-03T18:10:34.558Z,12.20
2019-05-03T18:13:01.054Z,12.30
2019-05-03T18:15:27.510Z,12.30
2019-05-03T18:17:54.877Z,12.40
2019-05-03T18:20:21.631Z,12.40
2019-05-03T18:22:48.212Z,12.10
2019-05-03T18:25:14.764Z,12.10
2019-05-03T18:27:41.402Z,12.20
2019-05-03T18:30:09.395Z,12.00
2019-05-03T18:32:35.844Z,11.80
2019-05-03T18:35:04.903Z,11.80
2019-05-03T18:37:32.005Z,11.90
2019-05-03T18:39:58.498Z,12.10
2019-05-03T18:42:26.869Z,12.20
2019-05-03T18:44:55.320Z,12.30
2019-05-03T18:47:26.272Z,12.20
2019-05-03T18:49:54.854Z,12.20
2019-05-03T18:52:21.142Z,12.20
2019-05-03T18:54:47.736Z,12.30
2019-05-03T18:57:15.600Z,12.30
2019-05-03T18:59:42.526Z,12.40
2019-05-03T19:02:09.219Z,12.30
2019-05-03T19:04:38.704Z,12.30
2019-05-03T19:07:08.265Z,12.30
2019-05-03T19:09:45.881Z,12.40
2019-05-03T19:12:15.441Z,12.40
2019-05-03T19:14:41.918Z,12.40
2019-05-03T19:17:19.235Z,12.30
2019-05-03T19:19:56.552Z,12.20
2019-05-03T19:22:24.864Z,12.20
2019-05-03T19:24:51.583Z,12.20
2019-05-03T19:27:18.042Z,12.30
2019-05-03T19:29:44.913Z,12.30
2019-05-03T19:32:11.502Z,12.30
2019-05-03T19:34:50.043Z,12.00
2019-05-03T19:37:14.552Z,12.00
2019-05-03T19:39:41.500Z,12.10
2019-05-03T19:42:08.291Z,12.10
2019-05-03T19:44:36.885Z,12.10
2019-05-03T19:47:06.529Z,12.10
2019-05-03T19:49:32.074Z,12.10
2019-05-03T19:51:58.936Z,12.10
2019-05-03T19:54:25.681Z,12.00
2019-05-03T19:56:55.482Z,11.90
2019-05-03T19:59:40.412Z,12.00
2019-05-03T20:02:08.905Z,11.90
2019-05-03T20:04:58.477Z,11.80
2019-05-03T20:07:25.181Z,11.80
2019-05-03T20:09:52.132Z,11.90
2019-05-03T20:12:18.972Z,11.90
2019-05-03T20:14:45.697Z,11.90
2019-05-03T20:17:12.284Z,12.00
2019-05-03T20:19:39.066Z,12.10
2019-05-03T20:22:07.313Z,12.00
2019-05-03T20:24:33.910Z,12.10
2019-05-03T20:27:00.454Z,12.20
2019-05-03T20:29:28.066Z,12.10
2019-05-03T20:32:15.907Z,12.10
2019-05-03T20:34:44.518Z,12.10
2019-05-03T20:37:11.374Z,12.00
2019-05-03T20:39:39.833Z,12.00
2019-05-03T20:42:06.390Z,11.90
2019-05-03T20:44:35.433Z,12.00
2019-05-03T20:47:22.084Z,11.90
2019-05-03T20:49:50.564Z,11.90
2019-05-03T20:52:17.162Z,11.90
2019-05-03T20:54:44.802Z,11.80
2019-05-03T20:57:11.471Z,11.80
2019-05-03T20:59:45.246Z,11.80
2019-05-03T21:02:06.545Z,11.80
2019-05-03T21:04:35.219Z,11.70
2019-05-03T21:07:01.452Z,11.80
2019-05-03T21:09:28.028Z,11.80
2019-05-03T21:11:55.155Z,11.80
2019-05-03T21:14:21.808Z,11.70
2019-05-03T21:16:50.296Z,11.70
2019-05-03T21:19:24.793Z,11.80
2019-05-03T21:21:55.033Z,11.80
2019-05-03T21:24:26.321Z,11.80
2019-05-03T21:26:54.706Z,11.90
2019-05-03T21:29:21.133Z,11.90
2019-05-03T21:31:47.652Z,12.10
2019-05-03T21:34:15.350Z,12.20
2019-05-03T21:36:42.050Z,12.10
2019-05-03T21:39:08.493Z,12.10
2019-05-03T21:41:35.913Z,12.20
2019-05-03T21:44:04.832Z,12.10
2019-05-03T21:46:33.516Z,12.10
2019-05-03T21:49:04.682Z,12.10
2019-05-03T21:51:31.190Z,12.00
2019-05-03T21:53:58.293Z,11.90
2019-05-03T21:56:25.188Z,12.10
2019-05-03T21:58:51.650Z,12.00
2019-05-03T22:01:18.293Z,12.00
2019-05-03T22:03:45.011Z,11.90
2019-05-03T22:06:11.460Z,11.90
2019-05-03T22:08:37.951Z,11.90
2019-05-03T22:11:05.390Z,11.90
2019-05-03T22:13:32.111Z,11.90
2019-05-03T22:16:00.613Z,11.80
2019-05-03T22:21:29.315Z,12.00
2019-05-03T22:24:16.884Z,12.00
2019-05-03T22:26:50.535Z,12.00
2019-05-03T22:29:20.299Z,11.90
2019-05-03T22:31:48.519Z,11.80
2019-05-03T22:34:18.976Z,11.80
2019-05-03T22:36:48.108Z,11.80
2019-05-03T22:39:22.066Z,11.80
2019-05-03T22:42:04.529Z,11.90
2019-05-03T22:44:35.656Z,11.80
2019-05-03T22:47:05.625Z,11.80
2019-05-03T22:49:39.389Z,12.00
2019-05-03T22:52:06.776Z,12.00
2019-05-03T22:54:34.578Z,12.00
2019-05-03T22:57:01.605Z,12.10
2019-05-03T22:59:31.604Z,12.10
2019-05-03T23:02:01.094Z,12.10
2019-05-03T23:04:31.121Z,12.00
2019-05-03T23:07:24.844Z,12.10
2019-05-03T23:10:03.717Z,12.10
2019-05-03T23:12:39.131Z,12.10
2019-05-03T23:15:12.378Z,12.00
2019-05-03T23:17:45.129Z,12.00
2019-05-03T23:20:34.480Z,11.90
2019-05-03T23:23:02.846Z,11.80
2019-05-03T23:25:35.546Z,11.80
2019-05-03T23:28:04.044Z,11.90
2019-05-03T23:30:31.021Z,11.90
2019-05-03T23:32:59.247Z,12.00
2019-05-03T23:35:27.810Z,12.00
2019-05-03T23:37:59.835Z,12.00
2019-05-03T23:40:29.947Z,12.00
2019-05-03T23:42:58.752Z,12.10
2019-05-03T23:45:25.837Z,12.00
2019-05-03T23:47:53.187Z,12.10
2019-05-03T23:50:44.542Z,12.10
2019-05-03T23:53:15.429Z,12.10
2019-05-03T23:55:56.781Z,12.00
2019-05-03T23:58:25.746Z,12.10
